Terminal Aerodrome Forecast
Issued by NWS Flagstaff, AZ

Home | Current Version | Previous Version | Text Only | Print | Product List | Glossary On
Versions: 1 2 3 4 5 6 7 8 9 10 11 12 13 14 15 16 17 18 19 20 21 22 23
909
FTUS45 KFGZ 162003 AAA
TAFINW
TAF AMD
KINW 162003Z 1620/1718 VRB06KT P6SM SCT025 BKN035
      TEMPO 1620/1623 BKN025
     FM170500 VRB04KT P6SM FEW025 BKN040=

USA.gov is the U.S. government's official web portal to all federal, state and local government web resources and services.